sensor_id;sensor_type;location;lat;lon;timestamp;P1;durP1;ratioP1;P2;durP2;ratioP2
60312;SDS011;46158;52.850;6.970;2023-08-17T00:01:27;3.42;;;2.10;;
60312;SDS011;46158;52.850;6.970;2023-08-17T00:03:52;4.22;;;2.03;;
60312;SDS011;46158;52.850;6.970;2023-08-17T00:06:18;4.07;;;2.10;;
60312;SDS011;46158;52.850;6.970;2023-08-17T00:08:44;3.13;;;1.98;;
60312;SDS011;46158;52.850;6.970;2023-08-17T00:11:10;2.47;;;2.00;;
60312;SDS011;46158;52.850;6.970;2023-08-17T00:13:36;2.45;;;1.90;;
60312;SDS011;46158;52.850;6.970;2023-08-17T00:16:01;5.07;;;2.10;;
60312;SDS011;46158;52.850;6.970;2023-08-17T00:18:27;3.40;;;1.80;;
60312;SDS011;46158;52.850;6.970;2023-08-17T00:20:52;3.50;;;1.95;;
60312;SDS011;46158;52.850;6.970;2023-08-17T00:23:18;2.92;;;1.70;;
60312;SDS011;46158;52.850;6.970;2023-08-17T00:25:45;4.53;;;1.92;;
60312;SDS011;46158;52.850;6.970;2023-08-17T00:28:12;2.72;;;1.92;;
60312;SDS011;46158;52.850;6.970;2023-08-17T00:30:38;2.80;;;1.90;;
60312;SDS011;46158;52.850;6.970;2023-08-17T00:33:04;3.13;;;2.00;;
60312;SDS011;46158;52.850;6.970;2023-08-17T00:35:30;4.25;;;2.13;;
60312;SDS011;46158;52.850;6.970;2023-08-17T00:37:57;3.30;;;2.00;;
60312;SDS011;46158;52.850;6.970;2023-08-17T00:40:23;3.00;;;2.00;;
60312;SDS011;46158;52.850;6.970;2023-08-17T00:42:49;2.67;;;1.80;;
60312;SDS011;46158;52.850;6.970;2023-08-17T00:45:14;2.20;;;1.88;;
60312;SDS011;46158;52.850;6.970;2023-08-17T00:47:40;3.88;;;1.90;;
60312;SDS011;46158;52.850;6.970;2023-08-17T00:50:07;3.38;;;1.80;;
60312;SDS011;46158;52.850;6.970;2023-08-17T00:52:33;3.70;;;2.00;;
60312;SDS011;46158;52.850;6.970;2023-08-17T00:55:00;3.05;;;1.85;;
60312;SDS011;46158;52.850;6.970;2023-08-17T00:57:27;3.75;;;1.95;;
60312;SDS011;46158;52.850;6.970;2023-08-17T00:59:53;3.20;;;2.00;;
60312;SDS011;46158;52.850;6.970;2023-08-17T01:02:19;3.22;;;1.90;;
60312;SDS011;46158;52.850;6.970;2023-08-17T01:04:45;3.45;;;2.05;;
60312;SDS011;46158;52.850;6.970;2023-08-17T01:07:11;3.72;;;2.10;;
60312;SDS011;46158;52.850;6.970;2023-08-17T01:09:37;2.10;;;1.90;;
60312;SDS011;46158;52.850;6.970;2023-08-17T01:12:07;3.70;;;1.90;;
60312;SDS011;46158;52.850;6.970;2023-08-17T01:14:52;2.80;;;2.00;;
60312;SDS011;46158;52.850;6.970;2023-08-17T01:20:17;2.97;;;1.98;;
60312;SDS011;46158;52.850;6.970;2023-08-17T01:22:45;2.08;;;1.80;;
60312;SDS011;46158;52.850;6.970;2023-08-17T01:25:12;3.05;;;1.92;;
60312;SDS011;46158;52.850;6.970;2023-08-17T01:27:40;4.68;;;2.10;;
60312;SDS011;46158;52.850;6.970;2023-08-17T01:30:10;2.85;;;1.90;;
60312;SDS011;46158;52.850;6.970;2023-08-17T01:35:35;3.08;;;2.00;;
60312;SDS011;46158;52.850;6.970;2023-08-17T01:38:06;3.80;;;1.95;;
60312;SDS011;46158;52.850;6.970;2023-08-17T01:40:36;2.53;;;1.80;;
60312;SDS011;46158;52.850;6.970;2023-08-17T01:43:03;4.03;;;2.00;;
60312;SDS011;46158;52.850;6.970;2023-08-17T01:45:28;2.83;;;2.05;;
60312;SDS011;46158;52.850;6.970;2023-08-17T01:47:55;3.20;;;2.00;;
60312;SDS011;46158;52.850;6.970;2023-08-17T01:50:20;1.80;;;1.70;;
60312;SDS011;46158;52.850;6.970;2023-08-17T01:52:46;2.35;;;1.80;;
60312;SDS011;46158;52.850;6.970;2023-08-17T01:55:12;2.08;;;1.88;;
60312;SDS011;46158;52.850;6.970;2023-08-17T01:57:37;3.60;;;2.00;;
60312;SDS011;46158;52.850;6.970;2023-08-17T02:00:04;3.75;;;2.03;;
60312;SDS011;46158;52.850;6.970;2023-08-17T02:02:31;3.60;;;2.05;;
60312;SDS011;46158;52.850;6.970;2023-08-17T02:04:57;2.58;;;1.83;;
60312;SDS011;46158;52.850;6.970;2023-08-17T02:07:22;3.22;;;1.98;;
60312;SDS011;46158;52.850;6.970;2023-08-17T02:09:48;2.60;;;1.80;;
60312;SDS011;46158;52.850;6.970;2023-08-17T02:12:14;3.95;;;1.73;;
60312;SDS011;46158;52.850;6.970;2023-08-17T02:14:39;3.90;;;1.77;;
60312;SDS011;46158;52.850;6.970;2023-08-17T02:17:05;2.70;;;1.80;;
60312;SDS011;46158;52.850;6.970;2023-08-17T02:19:31;3.60;;;1.80;;
60312;SDS011;46158;52.850;6.970;2023-08-17T02:21:58;2.90;;;1.90;;
60312;SDS011;46158;52.850;6.970;2023-08-17T02:24:23;2.08;;;1.83;;
60312;SDS011;46158;52.850;6.970;2023-08-17T02:26:49;3.05;;;2.00;;
60312;SDS011;46158;52.850;6.970;2023-08-17T02:29:15;4.32;;;1.90;;
60312;SDS011;46158;52.850;6.970;2023-08-17T02:31:41;2.80;;;1.90;;
60312;SDS011;46158;52.850;6.970;2023-08-17T02:34:06;1.90;;;1.80;;
60312;SDS011;46158;52.850;6.970;2023-08-17T02:36:32;2.30;;;1.83;;
60312;SDS011;46158;52.850;6.970;2023-08-17T02:38:58;2.97;;;1.90;;
60312;SDS011;46158;52.850;6.970;2023-08-17T02:41:24;2.47;;;1.90;;
60312;SDS011;46158;52.850;6.970;2023-08-17T02:43:49;2.28;;;1.90;;
60312;SDS011;46158;52.850;6.970;2023-08-17T02:46:15;3.83;;;1.88;;
60312;SDS011;46158;52.850;6.970;2023-08-17T02:48:41;3.03;;;1.90;;
60312;SDS011;46158;52.850;6.970;2023-08-17T02:51:06;2.35;;;1.80;;
60312;SDS011;46158;52.850;6.970;2023-08-17T02:53:32;3.22;;;1.85;;
60312;SDS011;46158;52.850;6.970;2023-08-17T02:55:57;4.10;;;2.00;;
60312;SDS011;46158;52.850;6.970;2023-08-17T02:58:23;4.00;;;2.00;;
60312;SDS011;46158;52.850;6.970;2023-08-17T03:00:51;2.10;;;1.90;;
60312;SDS011;46158;52.850;6.970;2023-08-17T03:03:17;3.78;;;2.00;;
60312;SDS011;46158;52.850;6.970;2023-08-17T03:05:42;2.58;;;1.85;;
60312;SDS011;46158;52.850;6.970;2023-08-17T03:08:08;2.92;;;1.80;;
60312;SDS011;46158;52.850;6.970;2023-08-17T03:10:33;3.45;;;2.00;;
60312;SDS011;46158;52.850;6.970;2023-08-17T03:12:59;3.05;;;1.77;;
60312;SDS011;46158;52.850;6.970;2023-08-17T03:15:25;2.15;;;1.80;;
60312;SDS011;46158;52.850;6.970;2023-08-17T03:17:50;3.67;;;1.90;;
60312;SDS011;46158;52.850;6.970;2023-08-17T03:20:16;2.13;;;1.90;;
60312;SDS011;46158;52.850;6.970;2023-08-17T03:22:42;2.13;;;1.83;;
60312;SDS011;46158;52.850;6.970;2023-08-17T03:25:07;4.15;;;2.00;;
60312;SDS011;46158;52.850;6.970;2023-08-17T03:27:33;3.20;;;1.80;;
60312;SDS011;46158;52.850;6.970;2023-08-17T03:29:59;2.00;;;1.75;;
60312;SDS011;46158;52.850;6.970;2023-08-17T03:32:25;2.03;;;1.75;;
60312;SDS011;46158;52.850;6.970;2023-08-17T03:34:50;4.40;;;1.90;;
60312;SDS011;46158;52.850;6.970;2023-08-17T03:37:16;3.22;;;1.90;;
60312;SDS011;46158;52.850;6.970;2023-08-17T03:39:41;2.85;;;1.75;;
60312;SDS011;46158;52.850;6.970;2023-08-17T03:42:07;2.10;;;1.90;;
60312;SDS011;46158;52.850;6.970;2023-08-17T03:44:33;2.55;;;1.73;;
60312;SDS011;46158;52.850;6.970;2023-08-17T03:46:58;3.58;;;1.95;;
60312;SDS011;46158;52.850;6.970;2023-08-17T03:49:24;1.83;;;1.73;;
60312;SDS011;46158;52.850;6.970;2023-08-17T03:51:50;3.80;;;1.98;;
60312;SDS011;46158;52.850;6.970;2023-08-17T03:54:16;2.15;;;1.75;;
60312;SDS011;46158;52.850;6.970;2023-08-17T03:56:42;2.50;;;1.80;;
60312;SDS011;46158;52.850;6.970;2023-08-17T03:59:08;2.78;;;2.00;;
60312;SDS011;46158;52.850;6.970;2023-08-17T04:01:33;1.88;;;1.73;;
60312;SDS011;46158;52.850;6.970;2023-08-17T04:03:59;4.47;;;2.00;;
60312;SDS011;46158;52.850;6.970;2023-08-17T04:06:25;2.78;;;1.85;;
60312;SDS011;46158;52.850;6.970;2023-08-17T04:08:50;2.10;;;1.80;;
60312;SDS011;46158;52.850;6.970;2023-08-17T04:11:16;2.17;;;1.90;;
60312;SDS011;46158;52.850;6.970;2023-08-17T04:13:41;3.47;;;1.80;;
60312;SDS011;46158;52.850;6.970;2023-08-17T04:16:07;2.42;;;1.90;;
60312;SDS011;46158;52.850;6.970;2023-08-17T04:18:32;3.00;;;1.98;;
60312;SDS011;46158;52.850;6.970;2023-08-17T04:20:58;2.38;;;1.92;;
60312;SDS011;46158;52.850;6.970;2023-08-17T04:23:24;3.47;;;1.80;;
60312;SDS011;46158;52.850;6.970;2023-08-17T04:25:49;3.15;;;1.90;;
60312;SDS011;46158;52.850;6.970;2023-08-17T04:28:15;2.75;;;1.80;;
60312;SDS011;46158;52.850;6.970;2023-08-17T04:30:41;2.72;;;1.70;;
60312;SDS011;46158;52.850;6.970;2023-08-17T04:33:06;2.13;;;1.83;;
60312;SDS011;46158;52.850;6.970;2023-08-17T04:35:33;2.10;;;1.90;;
60312;SDS011;46158;52.850;6.970;2023-08-17T04:37:59;2.33;;;2.00;;
60312;SDS011;46158;52.850;6.970;2023-08-17T04:40:25;2.90;;;1.83;;
60312;SDS011;46158;52.850;6.970;2023-08-17T04:42:51;2.92;;;1.80;;
60312;SDS011;46158;52.850;6.970;2023-08-17T04:45:16;2.92;;;1.90;;
60312;SDS011;46158;52.850;6.970;2023-08-17T04:47:42;2.97;;;1.90;;
60312;SDS011;46158;52.850;6.970;2023-08-17T04:50:08;3.35;;;1.80;;
60312;SDS011;46158;52.850;6.970;2023-08-17T04:52:34;4.85;;;2.03;;
60312;SDS011;46158;52.850;6.970;2023-08-17T04:54:59;5.90;;;1.90;;
60312;SDS011;46158;52.850;6.970;2023-08-17T04:57:25;2.92;;;2.10;;
60312;SDS011;46158;52.850;6.970;2023-08-17T04:59:52;6.03;;;2.17;;
60312;SDS011;46158;52.850;6.970;2023-08-17T05:02:18;5.40;;;2.10;;
60312;SDS011;46158;52.850;6.970;2023-08-17T05:04:44;11.07;;;2.47;;
60312;SDS011;46158;52.850;6.970;2023-08-17T05:07:10;7.78;;;2.40;;
60312;SDS011;46158;52.850;6.970;2023-08-17T05:09:36;10.18;;;2.40;;
60312;SDS011;46158;52.850;6.970;2023-08-17T05:12:02;8.52;;;2.50;;
60312;SDS011;46158;52.850;6.970;2023-08-17T05:14:27;5.80;;;2.53;;
60312;SDS011;46158;52.850;6.970;2023-08-17T05:16:53;9.32;;;2.63;;
60312;SDS011;46158;52.850;6.970;2023-08-17T05:19:19;7.57;;;2.40;;
60312;SDS011;46158;52.850;6.970;2023-08-17T05:21:44;5.90;;;2.40;;
60312;SDS011;46158;52.850;6.970;2023-08-17T05:24:10;6.20;;;2.38;;
60312;SDS011;46158;52.850;6.970;2023-08-17T05:26:36;9.70;;;2.67;;
60312;SDS011;46158;52.850;6.970;2023-08-17T05:29:01;8.98;;;2.60;;
60312;SDS011;46158;52.850;6.970;2023-08-17T05:31:27;8.48;;;3.10;;
60312;SDS011;46158;52.850;6.970;2023-08-17T05:33:53;11.27;;;2.65;;
60312;SDS011;46158;52.850;6.970;2023-08-17T05:36:18;5.65;;;2.22;;
60312;SDS011;46158;52.850;6.970;2023-08-17T05:38:44;5.75;;;2.28;;
60312;SDS011;46158;52.850;6.970;2023-08-17T05:41:10;4.70;;;2.10;;
60312;SDS011;46158;52.850;6.970;2023-08-17T05:43:35;8.50;;;2.35;;
60312;SDS011;46158;52.850;6.970;2023-08-17T05:46:01;7.03;;;2.35;;
60312;SDS011;46158;52.850;6.970;2023-08-17T05:48:27;8.00;;;2.60;;
60312;SDS011;46158;52.850;6.970;2023-08-17T05:50:55;8.95;;;2.40;;
60312;SDS011;46158;52.850;6.970;2023-08-17T05:53:20;7.35;;;2.50;;
60312;SDS011;46158;52.850;6.970;2023-08-17T05:55:46;5.95;;;2.38;;
60312;SDS011;46158;52.850;6.970;2023-08-17T05:58:12;7.40;;;2.33;;
60312;SDS011;46158;52.850;6.970;2023-08-17T06:00:37;9.60;;;2.50;;
60312;SDS011;46158;52.850;6.970;2023-08-17T06:03:03;7.20;;;2.40;;
60312;SDS011;46158;52.850;6.970;2023-08-17T06:05:29;7.10;;;2.38;;
60312;SDS011;46158;52.850;6.970;2023-08-17T06:07:58;6.80;;;2.10;;
60312;SDS011;46158;52.850;6.970;2023-08-17T06:10:24;7.97;;;2.40;;
60312;SDS011;46158;52.850;6.970;2023-08-17T06:12:53;5.55;;;2.22;;
60312;SDS011;46158;52.850;6.970;2023-08-17T06:15:20;7.45;;;2.35;;
60312;SDS011;46158;52.850;6.970;2023-08-17T06:17:46;5.22;;;2.30;;
60312;SDS011;46158;52.850;6.970;2023-08-17T06:20:12;5.82;;;2.28;;
60312;SDS011;46158;52.850;6.970;2023-08-17T06:22:38;4.55;;;2.25;;
60312;SDS011;46158;52.850;6.970;2023-08-17T06:25:04;6.05;;;2.50;;
60312;SDS011;46158;52.850;6.970;2023-08-17T06:27:31;6.40;;;2.25;;
60312;SDS011;46158;52.850;6.970;2023-08-17T06:29:57;6.50;;;2.45;;
60312;SDS011;46158;52.850;6.970;2023-08-17T06:32:22;6.95;;;2.50;;
60312;SDS011;46158;52.850;6.970;2023-08-17T06:34:48;7.82;;;2.38;;
60312;SDS011;46158;52.850;6.970;2023-08-17T06:37:14;6.35;;;2.30;;
60312;SDS011;46158;52.850;6.970;2023-08-17T06:39:39;4.85;;;2.17;;
60312;SDS011;46158;52.850;6.970;2023-08-17T06:42:05;4.82;;;2.20;;
60312;SDS011;46158;52.850;6.970;2023-08-17T06:44:31;6.15;;;2.05;;
60312;SDS011;46158;52.850;6.970;2023-08-17T06:46:56;6.30;;;2.20;;
60312;SDS011;46158;52.850;6.970;2023-08-17T06:49:23;5.55;;;2.20;;
60312;SDS011;46158;52.850;6.970;2023-08-17T06:51:49;8.00;;;2.50;;
60312;SDS011;46158;52.850;6.970;2023-08-17T06:54:15;6.88;;;2.40;;
60312;SDS011;46158;52.850;6.970;2023-08-17T06:56:41;6.10;;;2.10;;
60312;SDS011;46158;52.850;6.970;2023-08-17T06:59:06;8.50;;;2.50;;
60312;SDS011;46158;52.850;6.970;2023-08-17T07:01:32;5.60;;;2.35;;
60312;SDS011;46158;52.850;6.970;2023-08-17T07:03:57;5.75;;;2.10;;
60312;SDS011;46158;52.850;6.970;2023-08-17T07:06:26;6.97;;;2.25;;
60312;SDS011;46158;52.850;6.970;2023-08-17T07:08:53;4.60;;;2.10;;
60312;SDS011;46158;52.850;6.970;2023-08-17T07:11:19;6.88;;;2.20;;
60312;SDS011;46158;52.850;6.970;2023-08-17T07:13:44;5.63;;;2.10;;
60312;SDS011;46158;52.850;6.970;2023-08-17T07:16:10;3.95;;;2.25;;
60312;SDS011;46158;52.850;6.970;2023-08-17T07:18:36;7.68;;;2.17;;
60312;SDS011;46158;52.850;6.970;2023-08-17T07:21:01;7.70;;;2.20;;
60312;SDS011;46158;52.850;6.970;2023-08-17T07:23:27;4.35;;;2.20;;
60312;SDS011;46158;52.850;6.970;2023-08-17T07:25:53;5.25;;;2.25;;
60312;SDS011;46158;52.850;6.970;2023-08-17T07:28:18;6.18;;;2.13;;
60312;SDS011;46158;52.850;6.970;2023-08-17T07:30:44;3.53;;;2.10;;
60312;SDS011;46158;52.850;6.970;2023-08-17T07:33:10;5.55;;;1.90;;
60312;SDS011;46158;52.850;6.970;2023-08-17T07:35:35;4.13;;;2.03;;
60312;SDS011;46158;52.850;6.970;2023-08-17T07:38:01;5.22;;;2.35;;
60312;SDS011;46158;52.850;6.970;2023-08-17T07:40:27;4.43;;;1.80;;
60312;SDS011;46158;52.850;6.970;2023-08-17T07:42:52;5.50;;;2.15;;
60312;SDS011;46158;52.850;6.970;2023-08-17T07:45:18;4.97;;;2.00;;
60312;SDS011;46158;52.850;6.970;2023-08-17T07:47:44;4.25;;;2.13;;
60312;SDS011;46158;52.850;6.970;2023-08-17T07:50:09;4.88;;;2.00;;
60312;SDS011;46158;52.850;6.970;2023-08-17T07:52:35;4.22;;;2.05;;
60312;SDS011;46158;52.850;6.970;2023-08-17T07:55:01;5.53;;;2.10;;
60312;SDS011;46158;52.850;6.970;2023-08-17T07:57:26;3.95;;;2.00;;
60312;SDS011;46158;52.850;6.970;2023-08-17T07:59:52;4.40;;;2.15;;
60312;SDS011;46158;52.850;6.970;2023-08-17T08:02:18;5.57;;;1.98;;
60312;SDS011;46158;52.850;6.970;2023-08-17T08:04:44;6.13;;;1.90;;
60312;SDS011;46158;52.850;6.970;2023-08-17T08:07:10;5.45;;;2.17;;
60312;SDS011;46158;52.850;6.970;2023-08-17T08:09:35;4.03;;;2.00;;
60312;SDS011;46158;52.850;6.970;2023-08-17T08:12:01;3.97;;;1.95;;
60312;SDS011;46158;52.850;6.970;2023-08-17T08:14:27;4.15;;;2.03;;
60312;SDS011;46158;52.850;6.970;2023-08-17T08:16:53;4.97;;;2.05;;
60312;SDS011;46158;52.850;6.970;2023-08-17T08:19:18;3.75;;;1.90;;
60312;SDS011;46158;52.850;6.970;2023-08-17T08:21:44;4.70;;;1.80;;
60312;SDS011;46158;52.850;6.970;2023-08-17T08:24:09;4.95;;;2.00;;
60312;SDS011;46158;52.850;6.970;2023-08-17T08:26:35;4.65;;;2.00;;
60312;SDS011;46158;52.850;6.970;2023-08-17T08:29:01;5.00;;;1.90;;
60312;SDS011;46158;52.850;6.970;2023-08-17T08:31:26;5.72;;;2.10;;
60312;SDS011;46158;52.850;6.970;2023-08-17T08:33:52;4.85;;;2.00;;
60312;SDS011;46158;52.850;6.970;2023-08-17T08:36:18;4.53;;;2.22;;
60312;SDS011;46158;52.850;6.970;2023-08-17T08:38:43;5.78;;;2.15;;
60312;SDS011;46158;52.850;6.970;2023-08-17T08:41:10;4.30;;;2.08;;
60312;SDS011;46158;52.850;6.970;2023-08-17T08:43:36;4.90;;;2.00;;
60312;SDS011;46158;52.850;6.970;2023-08-17T08:46:03;6.38;;;1.95;;
60312;SDS011;46158;52.850;6.970;2023-08-17T08:48:29;2.65;;;1.85;;
60312;SDS011;46158;52.850;6.970;2023-08-17T08:50:57;6.05;;;2.00;;
60312;SDS011;46158;52.850;6.970;2023-08-17T08:53:32;2.90;;;1.80;;
60312;SDS011;46158;52.850;6.970;2023-08-17T08:56:04;4.15;;;2.00;;
60312;SDS011;46158;52.850;6.970;2023-08-17T08:58:32;2.38;;;1.90;;
60312;SDS011;46158;52.850;6.970;2023-08-17T09:00:59;2.25;;;1.80;;
60312;SDS011;46158;52.850;6.970;2023-08-17T09:03:27;4.57;;;1.70;;
60312;SDS011;46158;52.850;6.970;2023-08-17T09:05:53;4.28;;;2.08;;
60312;SDS011;46158;52.850;6.970;2023-08-17T09:08:25;3.20;;;1.63;;
60312;SDS011;46158;52.850;6.970;2023-08-17T09:10:54;4.28;;;1.80;;
60312;SDS011;46158;52.850;6.970;2023-08-17T09:13:19;2.80;;;1.88;;
60312;SDS011;46158;52.850;6.970;2023-08-17T09:15:45;4.28;;;2.00;;
60312;SDS011;46158;52.850;6.970;2023-08-17T09:18:11;4.80;;;2.17;;
60312;SDS011;46158;52.850;6.970;2023-08-17T09:20:40;2.42;;;1.67;;
60312;SDS011;46158;52.850;6.970;2023-08-17T09:23:11;2.45;;;1.67;;
60312;SDS011;46158;52.850;6.970;2023-08-17T09:25:42;2.83;;;1.90;;
60312;SDS011;46158;52.850;6.970;2023-08-17T09:30:54;2.97;;;1.70;;
60312;SDS011;46158;52.850;6.970;2023-08-17T09:33:26;3.20;;;1.85;;
60312;SDS011;46158;52.850;6.970;2023-08-17T09:35:53;3.05;;;1.80;;
60312;SDS011;46158;52.850;6.970;2023-08-17T09:38:20;5.72;;;1.85;;
60312;SDS011;46158;52.850;6.970;2023-08-17T09:40:46;4.32;;;2.00;;
60312;SDS011;46158;52.850;6.970;2023-08-17T09:43:13;3.30;;;1.95;;
60312;SDS011;46158;52.850;6.970;2023-08-17T09:45:40;3.85;;;1.92;;
60312;SDS011;46158;52.850;6.970;2023-08-17T09:48:06;3.03;;;1.90;;
60312;SDS011;46158;52.850;6.970;2023-08-17T09:50:33;3.28;;;1.95;;
60312;SDS011;46158;52.850;6.970;2023-08-17T09:52:59;3.95;;;1.90;;
60312;SDS011;46158;52.850;6.970;2023-08-17T09:55:25;2.80;;;1.70;;
60312;SDS011;46158;52.850;6.970;2023-08-17T09:57:52;3.58;;;1.80;;
60312;SDS011;46158;52.850;6.970;2023-08-17T10:00:19;3.83;;;1.90;;
60312;SDS011;46158;52.850;6.970;2023-08-17T10:02:45;2.17;;;1.80;;
60312;SDS011;46158;52.850;6.970;2023-08-17T10:05:17;3.28;;;1.85;;
60312;SDS011;46158;52.850;6.970;2023-08-17T10:07:46;2.42;;;1.60;;
60312;SDS011;46158;52.850;6.970;2023-08-17T10:10:21;3.10;;;1.80;;
60312;SDS011;46158;52.850;6.970;2023-08-17T10:12:55;5.18;;;1.90;;
60312;SDS011;46158;52.850;6.970;2023-08-17T10:15:34;3.20;;;1.83;;
60312;SDS011;46158;52.850;6.970;2023-08-17T10:18:13;5.68;;;2.10;;
60312;SDS011;46158;52.850;6.970;2023-08-17T10:20:49;2.88;;;1.77;;
60312;SDS011;46158;52.850;6.970;2023-08-17T10:23:25;7.28;;;2.10;;
60312;SDS011;46158;52.850;6.970;2023-08-17T10:25:52;2.90;;;2.00;;
60312;SDS011;46158;52.850;6.970;2023-08-17T10:28:18;3.42;;;1.90;;
60312;SDS011;46158;52.850;6.970;2023-08-17T10:30:46;3.55;;;2.03;;
60312;SDS011;46158;52.850;6.970;2023-08-17T10:33:13;4.97;;;1.98;;
60312;SDS011;46158;52.850;6.970;2023-08-17T10:35:40;3.03;;;1.90;;
60312;SDS011;46158;52.850;6.970;2023-08-17T10:38:07;3.90;;;1.95;;
60312;SDS011;46158;52.850;6.970;2023-08-17T10:40:37;3.42;;;1.90;;
60312;SDS011;46158;52.850;6.970;2023-08-17T10:43:04;2.97;;;1.90;;
60312;SDS011;46158;52.850;6.970;2023-08-17T10:45:34;3.92;;;2.08;;
60312;SDS011;46158;52.850;6.970;2023-08-17T10:50:33;3.67;;;1.88;;
60312;SDS011;46158;52.850;6.970;2023-08-17T10:53:03;4.78;;;1.90;;
60312;SDS011;46158;52.850;6.970;2023-08-17T10:55:37;4.60;;;2.00;;
60312;SDS011;46158;52.850;6.970;2023-08-17T10:58:09;4.93;;;2.10;;
60312;SDS011;46158;52.850;6.970;2023-08-17T11:00:36;5.00;;;2.00;;
60312;SDS011;46158;52.850;6.970;2023-08-17T11:03:07;4.32;;;2.00;;
60312;SDS011;46158;52.850;6.970;2023-08-17T11:05:47;4.82;;;2.00;;
60312;SDS011;46158;52.850;6.970;2023-08-17T11:08:34;2.65;;;1.80;;
60312;SDS011;46158;52.850;6.970;2023-08-17T11:11:14;3.05;;;2.03;;
60312;SDS011;46158;52.850;6.970;2023-08-17T11:13:40;2.85;;;1.88;;
60312;SDS011;46158;52.850;6.970;2023-08-17T11:16:08;3.95;;;1.85;;
60312;SDS011;46158;52.850;6.970;2023-08-17T11:18:35;3.65;;;2.10;;
60312;SDS011;46158;52.850;6.970;2023-08-17T11:21:01;3.08;;;2.00;;
60312;SDS011;46158;52.850;6.970;2023-08-17T11:23:29;3.65;;;2.00;;
60312;SDS011;46158;52.850;6.970;2023-08-17T11:25:56;6.70;;;2.20;;
60312;SDS011;46158;52.850;6.970;2023-08-17T11:28:25;2.60;;;1.88;;
60312;SDS011;46158;52.850;6.970;2023-08-17T11:30:57;3.55;;;1.80;;
60312;SDS011;46158;52.850;6.970;2023-08-17T11:33:28;4.10;;;2.00;;
60312;SDS011;46158;52.850;6.970;2023-08-17T11:35:54;4.32;;;2.15;;
60312;SDS011;46158;52.850;6.970;2023-08-17T11:38:21;4.40;;;2.10;;
60312;SDS011;46158;52.850;6.970;2023-08-17T11:40:46;3.10;;;2.03;;
60312;SDS011;46158;52.850;6.970;2023-08-17T11:43:13;4.43;;;2.20;;
60312;SDS011;46158;52.850;6.970;2023-08-17T11:45:39;2.42;;;1.90;;
60312;SDS011;46158;52.850;6.970;2023-08-17T11:48:05;2.65;;;2.10;;
60312;SDS011;46158;52.850;6.970;2023-08-17T11:50:31;7.22;;;2.20;;
60312;SDS011;46158;52.850;6.970;2023-08-17T11:52:59;2.83;;;2.20;;
60312;SDS011;46158;52.850;6.970;2023-08-17T11:55:26;3.43;;;2.00;;
60312;SDS011;46158;52.850;6.970;2023-08-17T11:57:52;3.20;;;2.10;;
60312;SDS011;46158;52.850;6.970;2023-08-17T12:00:18;2.80;;;2.10;;
60312;SDS011;46158;52.850;6.970;2023-08-17T12:02:48;4.18;;;2.05;;
60312;SDS011;46158;52.850;6.970;2023-08-17T12:05:21;3.28;;;1.98;;
60312;SDS011;46158;52.850;6.970;2023-08-17T12:07:52;2.83;;;2.10;;
60312;SDS011;46158;52.850;6.970;2023-08-17T12:10:19;2.40;;;2.00;;
60312;SDS011;46158;52.850;6.970;2023-08-17T12:12:48;4.93;;;2.13;;
60312;SDS011;46158;52.850;6.970;2023-08-17T12:15:15;6.30;;;2.40;;
60312;SDS011;46158;52.850;6.970;2023-08-17T12:17:45;2.88;;;2.15;;
60312;SDS011;46158;52.850;6.970;2023-08-17T12:20:15;2.95;;;2.08;;
60312;SDS011;46158;52.850;6.970;2023-08-17T12:25:08;4.30;;;2.03;;
60312;SDS011;46158;52.850;6.970;2023-08-17T12:27:35;4.35;;;2.28;;
60312;SDS011;46158;52.850;6.970;2023-08-17T12:30:01;2.67;;;2.05;;
60312;SDS011;46158;52.850;6.970;2023-08-17T12:32:26;3.95;;;2.20;;
60312;SDS011;46158;52.850;6.970;2023-08-17T12:34:52;2.78;;;2.13;;
60312;SDS011;46158;52.850;6.970;2023-08-17T12:37:18;3.22;;;2.00;;
60312;SDS011;46158;52.850;6.970;2023-08-17T12:39:46;2.92;;;2.10;;
60312;SDS011;46158;52.850;6.970;2023-08-17T12:42:12;3.08;;;2.03;;
60312;SDS011;46158;52.850;6.970;2023-08-17T12:44:39;4.25;;;2.25;;
60312;SDS011;46158;52.850;6.970;2023-08-17T12:47:05;4.18;;;2.40;;
60312;SDS011;46158;52.850;6.970;2023-08-17T12:49:31;3.90;;;2.13;;
60312;SDS011;46158;52.850;6.970;2023-08-17T12:51:56;3.97;;;2.35;;
60312;SDS011;46158;52.850;6.970;2023-08-17T12:54:22;3.28;;;2.33;;
60312;SDS011;46158;52.850;6.970;2023-08-17T12:56:47;4.05;;;2.50;;
60312;SDS011;46158;52.850;6.970;2023-08-17T12:59:13;5.07;;;2.40;;
60312;SDS011;46158;52.850;6.970;2023-08-17T13:01:39;5.07;;;2.35;;
60312;SDS011;46158;52.850;6.970;2023-08-17T13:04:05;4.32;;;2.30;;
60312;SDS011;46158;52.850;6.970;2023-08-17T13:06:31;4.82;;;2.28;;
60312;SDS011;46158;52.850;6.970;2023-08-17T13:08:58;4.13;;;2.40;;
60312;SDS011;46158;52.850;6.970;2023-08-17T13:11:23;3.67;;;2.30;;
60312;SDS011;46158;52.850;6.970;2023-08-17T13:13:49;4.22;;;2.53;;
60312;SDS011;46158;52.850;6.970;2023-08-17T13:16:14;4.40;;;2.50;;
60312;SDS011;46158;52.850;6.970;2023-08-17T13:18:40;4.43;;;2.42;;
60312;SDS011;46158;52.850;6.970;2023-08-17T13:21:06;6.57;;;2.47;;
60312;SDS011;46158;52.850;6.970;2023-08-17T13:23:31;3.70;;;2.47;;
60312;SDS011;46158;52.850;6.970;2023-08-17T13:25:57;5.72;;;2.50;;
60312;SDS011;46158;52.850;6.970;2023-08-17T13:28:24;5.13;;;2.70;;
60312;SDS011;46158;52.850;6.970;2023-08-17T13:30:50;4.72;;;2.35;;
60312;SDS011;46158;52.850;6.970;2023-08-17T13:33:15;4.70;;;2.80;;
60312;SDS011;46158;52.850;6.970;2023-08-17T13:35:42;4.45;;;2.40;;
60312;SDS011;46158;52.850;6.970;2023-08-17T13:38:07;4.20;;;2.30;;
60312;SDS011;46158;52.850;6.970;2023-08-17T13:40:33;3.75;;;2.35;;
60312;SDS011;46158;52.850;6.970;2023-08-17T13:43:01;5.43;;;2.35;;
60312;SDS011;46158;52.850;6.970;2023-08-17T13:45:28;2.92;;;2.20;;
60312;SDS011;46158;52.850;6.970;2023-08-17T13:47:54;4.50;;;2.40;;
60312;SDS011;46158;52.850;6.970;2023-08-17T13:50:19;3.72;;;2.30;;
60312;SDS011;46158;52.850;6.970;2023-08-17T13:52:45;4.75;;;2.30;;
60312;SDS011;46158;52.850;6.970;2023-08-17T13:55:12;3.90;;;2.22;;
60312;SDS011;46158;52.850;6.970;2023-08-17T13:57:38;4.03;;;2.50;;
60312;SDS011;46158;52.850;6.970;2023-08-17T14:00:04;3.88;;;2.20;;
60312;SDS011;46158;52.850;6.970;2023-08-17T14:02:31;3.95;;;2.38;;
60312;SDS011;46158;52.850;6.970;2023-08-17T14:04:56;4.15;;;2.47;;
60312;SDS011;46158;52.850;6.970;2023-08-17T14:07:22;4.00;;;2.20;;
60312;SDS011;46158;52.850;6.970;2023-08-17T14:09:48;3.78;;;2.22;;
60312;SDS011;46158;52.850;6.970;2023-08-17T14:12:13;4.75;;;2.40;;
60312;SDS011;46158;52.850;6.970;2023-08-17T14:14:39;3.45;;;2.22;;
60312;SDS011;46158;52.850;6.970;2023-08-17T14:17:05;3.78;;;2.20;;
60312;SDS011;46158;52.850;6.970;2023-08-17T14:19:30;3.08;;;2.33;;
60312;SDS011;46158;52.850;6.970;2023-08-17T14:21:56;3.70;;;2.47;;
60312;SDS011;46158;52.850;6.970;2023-08-17T14:24:24;4.25;;;2.30;;
60312;SDS011;46158;52.850;6.970;2023-08-17T14:26:50;3.15;;;2.25;;
60312;SDS011;46158;52.850;6.970;2023-08-17T14:29:15;6.43;;;2.50;;
60312;SDS011;46158;52.850;6.970;2023-08-17T14:31:41;3.15;;;2.20;;
60312;SDS011;46158;52.850;6.970;2023-08-17T14:34:07;3.95;;;2.30;;
60312;SDS011;46158;52.850;6.970;2023-08-17T14:36:32;2.30;;;2.10;;
60312;SDS011;46158;52.850;6.970;2023-08-17T14:38:58;3.85;;;2.30;;
60312;SDS011;46158;52.850;6.970;2023-08-17T14:41:23;3.10;;;2.30;;
60312;SDS011;46158;52.850;6.970;2023-08-17T14:43:56;3.65;;;2.30;;
60312;SDS011;46158;52.850;6.970;2023-08-17T14:46:22;5.75;;;2.38;;
60312;SDS011;46158;52.850;6.970;2023-08-17T14:48:48;3.38;;;2.30;;
60312;SDS011;46158;52.850;6.970;2023-08-17T14:51:13;2.72;;;2.30;;
60312;SDS011;46158;52.850;6.970;2023-08-17T14:53:39;3.70;;;2.28;;
60312;SDS011;46158;52.850;6.970;2023-08-17T14:56:04;3.53;;;2.35;;
60312;SDS011;46158;52.850;6.970;2023-08-17T14:58:30;4.22;;;2.30;;